Time;durP1;ratioP1;P1;durP2;ratioP2;P2;SDS_P1;SDS_P2;PMS_P1;PMS_P2;Temp;Humidity;BMP_temperature;BMP_pressure;BME280_temperature;BME280_humidity;BME280_pressure;Samples;Min_cycle;Max_cycle;Signal;HPM_P1;HPM_P2
2023/12/19 00:00:46;;;;;;;45.58;25.17;;;;;;;5.44;100.00;101961.31;5038703;28;20064;-72
2023/12/19 00:03:11;;;;;;;42.95;24.42;;;;;;;5.46;100.00;101961.94;5020932;28;20393;-72
2023/12/19 00:05:37;;;;;;;40.85;23.50;;;;;;;5.46;100.00;101950.06;5036716;28;20037;-73
2023/12/19 00:08:03;;;;;;;40.00;23.15;;;;;;;5.46;100.00;101950.91;5038646;28;20105;-72
2023/12/19 00:10:29;;;;;;;39.58;23.58;;;;;;;5.46;100.00;101961.94;5038473;28;20060;-73
2023/12/19 00:12:55;;;;;;;35.47;21.67;;;;;;;5.46;100.00;101953.69;5037681;28;20029;-73
2023/12/19 00:15:22;;;;;;;40.15;22.52;;;;;;;5.47;100.00;101946.25;5037088;28;20080;-73
2023/12/19 00:17:48;;;;;;;43.85;23.67;;;;;;;5.49;100.00;101947.72;5037448;28;20061;-73
2023/12/19 00:20:13;;;;;;;42.22;24.33;;;;;;;5.47;100.00;101941.56;5038289;28;20033;-72
2023/12/19 00:22:39;;;;;;;40.28;22.33;;;;;;;5.48;100.00;101939.66;5038324;28;20036;-72
2023/12/19 00:25:05;;;;;;;43.17;24.33;;;;;;;5.49;100.00;101933.94;5037990;28;20029;-73
2023/12/19 00:27:31;;;;;;;37.28;22.25;;;;;;;5.48;100.00;101925.88;5039574;28;20034;-73
2023/12/19 00:29:56;;;;;;;40.53;23.10;;;;;;;5.48;100.00;101926.72;5033781;28;20053;-72
2023/12/19 00:32:22;;;;;;;36.80;21.50;;;;;;;5.49;100.00;101924.81;5031357;28;20038;-72
2023/12/19 00:34:47;;;;;;;37.17;22.33;;;;;;;5.49;100.00;101920.16;5032484;28;20040;-73
2023/12/19 00:37:13;;;;;;;42.85;23.02;;;;;;;5.51;100.00;101917.16;5031322;28;20033;-72
2023/12/19 00:39:39;;;;;;;40.53;23.08;;;;;;;5.52;100.00;101918.88;5023624;28;20036;-73
2023/12/19 00:42:05;;;;;;;35.28;21.73;;;;;;;5.51;100.00;101911.66;5029763;28;20562;-73
2023/12/19 00:44:30;;;;;;;34.63;20.98;;;;;;;5.51;100.00;101912.47;5026444;28;20542;-73
2023/12/19 00:46:56;;;;;;;35.08;21.83;;;;;;;5.53;100.00;101920.53;5031777;28;20047;-72
2023/12/19 00:49:21;;;;;;;37.50;22.55;;;;;;;5.52;100.00;101919.69;5018730;28;20025;-72
2023/12/19 00:51:47;;;;;;;38.13;21.85;;;;;;;5.52;100.00;101919.69;5027199;28;20092;-72
2023/12/19 00:54:13;;;;;;;36.05;21.02;;;;;;;5.56;100.00;101922.84;5021586;28;20053;-72
2023/12/19 00:56:40;;;;;;;35.95;21.13;;;;;;;5.56;100.00;101914.56;5019120;28;20034;-73
2023/12/19 00:59:06;;;;;;;41.05;22.95;;;;;;;5.55;100.00;101908.22;5029105;28;20030;-72
2023/12/19 01:01:31;;;;;;;37.58;20.95;;;;;;;5.55;100.00;101908.22;5034242;28;20069;-73
2023/12/19 01:03:57;;;;;;;36.47;20.42;;;;;;;5.55;100.00;101907.38;5037200;28;20029;-72
2023/12/19 01:06:22;;;;;;;34.97;20.35;;;;;;;5.56;100.00;101911.81;5037536;28;20036;-72
2023/12/19 01:08:48;;;;;;;37.65;20.45;;;;;;;5.56;100.00;101904.38;5037331;28;20038;-72
2023/12/19 01:11:13;;;;;;;35.35;20.67;;;;;;;5.60;100.00;101905.63;5036160;28;20108;-73
2023/12/19 01:13:39;;;;;;;36.38;20.90;;;;;;;5.58;100.00;101902.25;5032290;28;20065;-72
2023/12/19 01:16:05;;;;;;;34.55;20.38;;;;;;;5.59;100.00;101901.16;5039570;28;20056;-72
2023/12/19 01:18:31;;;;;;;32.03;19.58;;;;;;;5.60;100.00;101896.53;5035978;28;20041;-72
2023/12/19 01:20:56;;;;;;;36.40;21.42;;;;;;;5.60;100.00;101900.13;5036734;28;20163;-72
2023/12/19 01:23:23;;;;;;;37.33;20.50;;;;;;;5.59;100.00;101898.41;5035878;28;20025;-72
2023/12/19 01:25:48;;;;;;;37.95;19.50;;;;;;;5.59;100.00;101895.66;5041608;28;20021;-72
2023/12/19 01:28:14;;;;;;;34.75;19.98;;;;;;;5.60;100.00;101894.63;5042293;28;20026;-72
2023/12/19 01:30:39;;;;;;;36.15;20.45;;;;;;;5.61;100.00;101889.94;5035660;28;20026;-72
2023/12/19 01:33:06;;;;;;;35.10;20.23;;;;;;;5.63;100.00;101892.44;5036540;28;20036;-73
2023/12/19 01:35:32;;;;;;;33.58;18.95;;;;;;;5.62;100.00;101890.78;5036887;28;20033;-72
2023/12/19 01:37:57;;;;;;;34.45;19.77;;;;;;;5.61;100.00;101889.94;5035451;28;20449;-73
2023/12/19 01:40:23;;;;;;;33.85;19.90;;;;;;;5.63;100.00;101884.19;5036846;28;20030;-72
2023/12/19 01:42:48;;;;;;;35.92;20.75;;;;;;;5.64;100.00;101883.13;5036616;28;20025;-72
2023/12/19 01:45:14;;;;;;;30.92;18.85;;;;;;;5.64;100.00;101883.13;5036734;28;20033;-72
2023/12/19 01:47:44;;;;;;;33.28;19.33;;;;;;;5.64;100.00;101877.63;5036396;28;20431;-73
2023/12/19 01:50:15;;;;;;;33.30;19.17;;;;;;;5.66;100.00;101878.25;5039567;28;20095;-72
2023/12/19 01:52:54;;;;;;;33.95;21.42;;;;;;;5.65;100.00;101871.84;5036395;28;20060;-72
2023/12/19 01:55:19;;;;;;;33.05;19.70;;;;;;;5.65;100.00;101874.63;5035399;28;20417;-73
2023/12/19 01:57:45;;;;;;;30.55;18.13;;;;;;;5.65;100.00;101862.75;5036548;28;20037;-73
2023/12/19 02:00:14;;;;;;;36.75;18.90;;;;;;;5.65;100.00;101866.34;5035584;28;20476;-73
2023/12/19 02:02:40;;;;;;;30.23;18.83;;;;;;;5.65;100.00;101855.31;5018833;28;20052;-72
2023/12/19 02:05:06;;;;;;;34.30;20.13;;;;;;;5.67;100.00;101853.19;5021174;28;20056;-72
2023/12/19 02:07:31;;;;;;;35.10;21.02;;;;;;;5.66;100.00;101857.03;5038474;28;20033;-72
2023/12/19 02:09:57;;;;;;;29.33;18.70;;;;;;;5.67;100.00;101866.13;5035075;28;20037;-73
2023/12/19 02:12:22;;;;;;;30.05;18.50;;;;;;;5.67;100.00;101857.88;5036278;28;20033;-72
2023/12/19 02:14:48;;;;;;;31.52;19.67;;;;;;;5.69;100.00;101853.81;5035719;28;20394;-72
2023/12/19 02:17:15;;;;;;;30.45;18.83;;;;;;;5.69;100.00;101852.97;5035218;28;20041;-72
2023/12/19 02:19:44;;;;;;;30.92;18.08;;;;;;;5.70;100.00;101854.66;5035955;28;20052;-72
2023/12/19 02:22:10;;;;;;;30.50;18.20;;;;;;;5.69;100.00;101848.28;5018634;28;20061;-72
2023/12/19 02:24:35;;;;;;;33.72;17.80;;;;;;;5.69;100.00;101851.06;5035899;28;20079;-72
2023/12/19 02:27:01;;;;;;;31.25;19.08;;;;;;;5.70;100.00;101857.41;5018456;28;20026;-72
2023/12/19 02:29:27;;;;;;;33.13;17.45;;;;;;;5.71;100.00;101850.81;5035624;28;20036;-72
2023/12/19 02:31:53;;;;;;;29.02;18.15;;;;;;;5.71;100.00;101850.81;5036019;28;20041;-73
2023/12/19 02:34:18;;;;;;;30.95;17.52;;;;;;;5.71;100.00;101850.81;5034609;28;20034;-72
2023/12/19 02:36:44;;;;;;;33.88;19.95;;;;;;;5.71;100.00;101843.41;5035890;28;20052;-72
2023/12/19 02:39:10;;;;;;;31.98;18.10;;;;;;;5.72;100.00;101844.25;5036076;28;20097;-73
2023/12/19 02:41:35;;;;;;;33.30;18.48;;;;;;;5.71;100.00;101840.66;5034623;28;20045;-73
2023/12/19 02:44:01;;;;;;;30.42;17.92;;;;;;;5.71;100.00;101837.03;5035961;28;20033;-73
2023/12/19 02:46:26;;;;;;;30.23;18.95;;;;;;;5.70;100.00;101838.09;5035969;28;20030;-72
2023/12/19 02:48:52;;;;;;;30.73;18.10;;;;;;;5.71;100.00;101835.13;5035744;28;20038;-72
2023/12/19 02:51:19;;;;;;;28.27;17.90;;;;;;;5.70;100.00;101835.34;5038630;28;20513;-73
2023/12/19 02:53:44;;;;;;;29.88;18.33;;;;;;;5.69;100.00;101826.25;5034596;28;20036;-73
2023/12/19 02:56:10;;;;;;;30.23;17.88;;;;;;;5.70;100.00;101818.81;5035808;28;20033;-73
2023/12/19 02:58:35;;;;;;;30.83;17.55;;;;;;;5.70;100.00;101813.28;5035934;28;20082;-72
2023/12/19 03:01:01;;;;;;;26.92;16.80;;;;;;;5.70;100.00;101816.06;5033736;28;20386;-72
2023/12/19 03:03:26;;;;;;;27.38;16.52;;;;;;;5.69;100.00;101822.66;5028712;28;20430;-73
2023/12/19 03:05:51;;;;;;;30.10;17.45;;;;;;;5.67;100.00;101811.84;5037898;28;20517;-72
2023/12/19 03:08:17;;;;;;;29.67;17.83;;;;;;;5.66;100.00;101820.34;5044553;28;20055;-73
2023/12/19 03:10:42;;;;;;;25.40;16.45;;;;;;;5.65;100.00;101819.50;5035758;28;20030;-73
2023/12/19 03:13:08;;;;;;;27.70;16.95;;;;;;;5.60;100.00;101806.41;5031919;28;20033;-73
2023/12/19 03:15:34;;;;;;;27.20;17.10;;;;;;;5.60;100.00;101803.66;5035521;28;20037;-72
2023/12/19 03:17:59;;;;;;;29.20;16.95;;;;;;;5.58;100.00;101803.03;5034869;28;20104;-73
2023/12/19 03:20:24;;;;;;;28.10;17.10;;;;;;;5.55;100.00;101791.66;5034305;28;20033;-72
2023/12/19 03:22:50;;;;;;;31.58;17.13;;;;;;;5.51;100.00;101799.50;5035778;28;20029;-72
2023/12/19 03:25:15;;;;;;;26.95;16.48;;;;;;;5.49;100.00;101792.53;5035349;28;20395;-72
2023/12/19 03:27:41;;;;;;;26.08;15.25;;;;;;;5.45;100.00;101783.06;5034401;28;20084;-72
2023/12/19 03:30:07;;;;;;;23.92;14.77;;;;;;;5.40;100.00;101783.72;5035840;28;20041;-72
2023/12/19 03:32:33;;;;;;;26.02;15.18;;;;;;;5.38;100.00;101780.38;5035587;28;20033;-73
2023/12/19 03:34:58;;;;;;;24.80;15.27;;;;;;;5.36;100.00;101777.00;5035533;28;20496;-72
2023/12/19 03:37:24;;;;;;;26.05;15.98;;;;;;;5.33;100.00;101777.47;5035690;28;20414;-72
2023/12/19 03:39:49;;;;;;;28.95;16.10;;;;;;;5.29;100.00;101776.22;5035537;28;20049;-72
2023/12/19 03:42:14;;;;;;;27.55;15.88;;;;;;;5.28;100.00;101769.03;5038191;28;20076;-72
2023/12/19 03:44:41;;;;;;;27.10;15.52;;;;;;;5.25;100.00;101775.84;5038927;28;20038;-73
2023/12/19 03:47:07;;;;;;;23.98;15.05;;;;;;;5.22;100.00;101761.69;5037788;28;20060;-73
2023/12/19 03:49:33;;;;;;;29.05;16.55;;;;;;;5.18;100.00;101761.28;5038790;28;20433;-72
2023/12/19 03:51:58;;;;;;;22.55;14.52;;;;;;;5.17;100.00;101758.78;5041896;28;20398;-73
2023/12/19 03:54:24;;;;;;;26.60;15.68;;;;;;;5.13;100.00;101762.00;5038654;28;20029;-73
2023/12/19 03:56:50;;;;;;;23.38;15.30;;;;;;;5.13;100.00;101758.41;5037581;28;20041;-72
2023/12/19 03:59:15;;;;;;;26.63;15.88;;;;;;;5.08;100.00;101748.06;5037847;28;20029;-72
2023/12/19 04:01:44;;;;;;;27.15;16.40;;;;;;;5.08;100.00;101750.81;5037466;28;20041;-73
2023/12/19 04:04:11;;;;;;;25.67;15.05;;;;;;;5.05;100.00;101754.03;5036960;28;20088;-72
2023/12/19 04:06:40;;;;;;;25.17;14.60;;;;;;;5.04;100.00;101746.84;5047064;28;20042;-73
2023/12/19 04:09:06;;;;;;;24.88;15.13;;;;;;;5.03;100.00;101747.88;5040891;28;20041;-72
2023/12/19 04:11:31;;;;;;;24.67;14.80;;;;;;;5.03;100.00;101756.16;5037317;28;20087;-72
2023/12/19 04:13:57;;;;;;;27.42;15.77;;;;;;;5.03;100.00;101755.31;5037104;28;20036;-72
2023/12/19 04:16:22;;;;;;;29.30;16.13;;;;;;;5.01;100.00;101741.75;5044099;28;20109;-73
2023/12/19 04:18:48;;;;;;;29.48;16.42;;;;;;;5.03;100.00;101736.88;5037474;28;20401;-72
2023/12/19 04:21:13;;;;;;;26.95;15.63;;;;;;;5.04;100.00;101745.97;5038513;28;20060;-73
2023/12/19 04:23:38;;;;;;;25.80;14.65;;;;;;;5.05;100.00;101748.50;5037107;28;20032;-73
2023/12/19 04:26:04;;;;;;;26.65;15.80;;;;;;;5.05;100.00;101739.41;5004325;28;20022;-73
2023/12/19 04:28:30;;;;;;;26.45;15.55;;;;;;;5.09;100.00;101749.72;5037970;28;20119;-72
2023/12/19 04:30:55;;;;;;;25.98;14.93;;;;;;;5.12;100.00;101743.75;5038368;28;20367;-72
2023/12/19 04:33:21;;;;;;;27.67;15.32;;;;;;;5.14;100.00;101744.38;5036530;28;20034;-73
2023/12/19 04:35:46;;;;;;;25.02;15.05;;;;;;;5.17;100.00;101734.00;5038344;28;20386;-72
2023/12/19 04:38:13;;;;;;;29.75;15.48;;;;;;;5.22;100.00;101734.16;5037940;28;20044;-72
2023/12/19 04:40:39;;;;;;;26.08;16.33;;;;;;;5.24;100.00;101729.25;5038137;28;20116;-72
2023/12/19 04:43:04;;;;;;;24.73;15.45;;;;;;;5.26;100.00;101724.34;5037854;28;20114;-73
2023/12/19 04:45:30;;;;;;;23.73;15.05;;;;;;;5.29;100.00;101715.63;5037000;28;20025;-73
2023/12/19 04:47:56;;;;;;;27.27;16.10;;;;;;;5.33;100.00;101722.38;5037687;28;20042;-72
2023/12/19 04:50:21;;;;;;;27.60;15.65;;;;;;;5.34;100.00;101721.28;5040630;28;20036;-73
2023/12/19 04:52:47;;;;;;;24.67;14.73;;;;;;;5.35;100.00;101711.97;5037285;28;20397;-73
2023/12/19 04:55:12;;;;;;;26.55;15.40;;;;;;;5.41;100.00;101705.53;5037869;28;20029;-73
2023/12/19 04:57:38;;;;;;;26.58;15.15;;;;;;;5.43;100.00;101700.63;5037605;28;20057;-72
2023/12/19 05:00:04;;;;;;;28.40;15.20;;;;;;;5.43;100.00;101703.38;5037646;28;20037;-73
2023/12/19 05:02:30;;;;;;;23.42;13.98;;;;;;;5.47;100.00;101701.84;5034485;28;20084;-73
2023/12/19 05:04:55;;;;;;;25.73;15.07;;;;;;;5.49;100.00;101705.22;5037508;28;20038;-73
2023/12/19 05:07:21;;;;;;;29.52;15.60;;;;;;;5.52;100.00;101699.25;5042218;28;20102;-73
2023/12/19 05:09:53;;;;;;;28.90;16.23;;;;;;;5.55;100.00;101693.28;5024797;28;20045;-73
2023/12/19 05:12:19;;;;;;;24.77;14.82;;;;;;;5.57;100.00;101687.50;5055370;28;20034;-73
2023/12/19 05:14:45;;;;;;;29.55;15.93;;;;;;;5.57;100.00;101684.75;5012792;28;20059;-72
2023/12/19 05:17:10;;;;;;;25.00;14.43;;;;;;;5.56;100.00;101681.16;5026162;28;20538;-73
2023/12/19 05:19:36;;;;;;;26.50;15.25;;;;;;;5.61;100.00;101674.97;5030788;28;20053;-72
2023/12/19 05:22:01;;;;;;;24.33;14.80;;;;;;;5.60;100.00;101679.63;5031806;28;20395;-72
2023/12/19 05:24:27;;;;;;;27.67;15.68;;;;;;;5.60;100.00;101668.63;5028061;28;20026;-72
2023/12/19 05:26:53;;;;;;;28.08;15.25;;;;;;;5.61;100.00;101680.47;5027763;28;20041;-72
2023/12/19 05:29:18;;;;;;;28.98;14.68;;;;;;;5.62;100.00;101679.38;5027869;28;20502;-72
2023/12/19 05:31:44;;;;;;;27.90;14.15;;;;;;;5.60;100.00;101679.63;5025457;28;20030;-72
2023/12/19 05:34:09;;;;;;;28.25;15.98;;;;;;;5.64;100.00;101673.66;5029021;28;20413;-72
2023/12/19 05:36:35;;;;;;;25.52;14.90;;;;;;;5.62;100.00;101673.03;5027253;28;20033;-72
2023/12/19 05:39:01;;;;;;;25.35;14.70;;;;;;;5.65;100.00;101672.56;5027898;28;20398;-73
2023/12/19 05:41:26;;;;;;;25.25;13.93;;;;;;;5.67;100.00;101667.69;5026437;28;20038;-72
2023/12/19 05:43:56;;;;;;;26.33;15.32;;;;;;;5.66;100.00;101669.59;5027389;28;20073;-73
2023/12/19 05:46:21;;;;;;;22.58;14.07;;;;;;;5.66;100.00;101666.84;5025285;28;20028;-73
2023/12/19 05:48:47;;;;;;;27.60;15.35;;;;;;;5.67;100.00;101663.00;5027529;28;20025;-72
2023/12/19 05:51:12;;;;;;;26.90;13.98;;;;;;;5.68;100.00;101670.19;5022901;28;20103;-73
2023/12/19 05:53:38;;;;;;;27.33;14.60;;;;;;;5.70;100.00;101662.53;5027113;28;20501;-73
2023/12/19 05:56:05;;;;;;;26.30;14.98;;;;;;;5.70;100.00;101664.47;5021915;28;20034;-73
2023/12/19 05:58:31;;;;;;;24.50;14.52;;;;;;;5.69;100.00;101669.13;5036604;28;20032;-72
2023/12/19 06:00:57;;;;;;;22.55;14.25;;;;;;;5.69;100.00;101673.81;5036651;28;20114;-73
2023/12/19 06:03:23;;;;;;;23.25;14.18;;;;;;;5.71;100.00;101675.25;5035696;28;20029;-72
2023/12/19 06:05:48;;;;;;;25.05;14.20;;;;;;;5.68;100.00;101672.09;5036708;28;20029;-73
2023/12/19 06:08:16;;;;;;;26.35;14.13;;;;;;;5.71;100.00;101675.25;5045761;28;20042;-72
2023/12/19 06:10:45;;;;;;;26.27;14.23;;;;;;;5.70;100.00;101672.72;5036259;28;20032;-72
2023/12/19 06:13:11;;;;;;;24.52;14.98;;;;;;;5.69;100.00;101674.66;5033574;28;20038;-72
2023/12/19 06:15:36;;;;;;;27.55;13.45;;;;;;;5.69;100.00;101671.88;5036976;28;20084;-72
2023/12/19 06:18:02;;;;;;;24.30;13.63;;;;;;;5.69;100.00;101671.06;5034017;28;20050;-73
2023/12/19 06:20:27;;;;;;;22.20;13.93;;;;;;;5.70;100.00;101664.47;5036035;28;20125;-72
2023/12/19 06:22:53;;;;;;;24.15;13.80;;;;;;;5.67;100.00;101668.50;5036274;28;20183;-72
2023/12/19 06:25:18;;;;;;;22.25;14.07;;;;;;;5.67;100.00;101664.94;5035880;28;20033;-73
2023/12/19 06:27:44;;;;;;;22.08;12.93;;;;;;;5.66;100.00;101661.34;5036066;28;20037;-73
2023/12/19 06:30:10;;;;;;;22.05;12.30;;;;;;;5.66;100.00;101666.00;5036065;28;20035;-73
2023/12/19 06:32:36;;;;;;;25.17;13.80;;;;;;;5.63;100.00;101667.31;5035965;28;20458;-73
2023/12/19 06:35:03;;;;;;;23.25;12.98;;;;;;;5.64;100.00;101673.66;5036027;28;20040;-72
2023/12/19 06:37:29;;;;;;;24.35;13.23;;;;;;;5.64;100.00;101677.25;5035228;28;20026;-72
2023/12/19 06:39:54;;;;;;;22.42;12.85;;;;;;;5.65;100.00;101670.66;5035955;28;20040;-73
2023/12/19 06:42:21;;;;;;;22.58;12.60;;;;;;;5.63;100.00;101678.34;5036075;28;20034;-72
2023/12/19 06:44:47;;;;;;;22.60;13.52;;;;;;;5.65;100.00;101675.34;5034647;28;20056;-73
2023/12/19 06:47:14;;;;;;;21.80;13.07;;;;;;;5.64;100.00;101690.19;5034671;28;20101;-73
2023/12/19 06:49:40;;;;;;;21.65;12.73;;;;;;;5.65;100.00;101672.56;5035942;28;20103;-73
2023/12/19 06:52:06;;;;;;;21.92;12.57;;;;;;;5.67;100.00;101670.44;5038540;28;20032;-73
2023/12/19 06:54:32;;;;;;;20.25;12.18;;;;;;;5.66;100.00;101664.09;5035845;28;20033;-72
2023/12/19 06:56:58;;;;;;;20.75;12.23;;;;;;;5.69;100.00;101660.03;5035949;28;20108;-73
2023/12/19 06:59:24;;;;;;;21.58;11.77;;;;;;;5.69;100.00;101651.75;5034655;28;20057;-73
2023/12/19 07:01:50;;;;;;;20.55;11.85;;;;;;;5.70;100.00;101646.00;5034805;28;20030;-72
2023/12/19 07:04:15;;;;;;;19.98;11.85;;;;;;;5.72;100.00;101637.50;5035400;28;20049;-72
2023/12/19 07:06:42;;;;;;;22.70;12.45;;;;;;;5.73;100.00;101628.16;5044786;28;20024;-73
2023/12/19 07:09:08;;;;;;;24.83;12.82;;;;;;;5.76;100.00;101619.41;5038641;28;20476;-73
2023/12/19 07:11:33;;;;;;;25.73;13.30;;;;;;;5.77;100.00;101621.94;5035829;28;20033;-73
2023/12/19 07:13:59;;;;;;;22.48;13.20;;;;;;;5.78;100.00;101626.38;5029988;28;20080;-75
2023/12/19 07:16:43;;;;;;;21.48;12.40;;;;;;;5.77;100.00;101629.38;5028810;28;20036;-75
2023/12/19 07:19:09;;;;;;;19.73;11.93;;;;;;;5.77;100.00;101615.59;5020870;28;20060;-72
2023/12/19 07:21:35;;;;;;;24.52;13.35;;;;;;;5.76;100.00;101619.41;5039746;28;20059;-72
2023/12/19 07:24:01;;;;;;;21.20;12.57;;;;;;;5.74;100.00;101607.78;5039335;28;20033;-72
2023/12/19 07:26:27;;;;;;;21.50;12.10;;;;;;;5.72;100.00;101605.25;5030448;28;20029;-72
2023/12/19 07:28:59;;;;;;;22.23;11.98;;;;;;;5.73;100.00;101606.94;5005083;28;20052;-73
2023/12/19 07:31:26;;;;;;;22.40;11.88;;;;;;;5.71;100.00;101603.59;5039426;28;20037;-73
2023/12/19 07:33:56;;;;;;;19.13;11.35;;;;;;;5.70;100.00;101595.53;5038934;28;20033;-73
2023/12/19 07:36:23;;;;;;;22.80;11.70;;;;;;;5.68;100.00;101582.00;5039361;28;20108;-73
2023/12/19 07:38:49;;;;;;;17.95;12.25;;;;;;;5.68;100.00;101573.72;5039268;28;20036;-73
2023/12/19 07:41:15;;;;;;;19.88;11.32;;;;;;;5.66;100.00;101586.09;5037897;28;20490;-73
2023/12/19 07:43:40;;;;;;;21.45;12.68;;;;;;;5.64;100.00;101583.53;5039022;28;20052;-73
2023/12/19 07:46:06;;;;;;;22.50;12.70;;;;;;;5.65;100.00;101582.47;5039043;28;20087;-73
2023/12/19 07:48:34;;;;;;;17.40;10.85;;;;;;;5.66;100.00;101578.66;5037789;28;20029;-73
2023/12/19 07:51:00;;;;;;;21.10;11.88;;;;;;;5.68;100.00;101575.63;5041628;28;20097;-73
2023/12/19 07:53:26;;;;;;;19.52;11.85;;;;;;;5.71;100.00;101576.03;5038889;28;20124;-73
2023/12/19 07:55:52;;;;;;;21.52;12.55;;;;;;;5.72;100.00;101582.38;5025489;28;20029;-73
2023/12/19 07:58:18;;;;;;;19.75;11.38;;;;;;;5.71;100.00;101591.69;5037564;28;20025;-73
2023/12/19 08:00:43;;;;;;;21.58;11.93;;;;;;;5.72;100.00;101582.38;5038860;28;20037;-72
2023/12/19 08:03:09;;;;;;;18.58;11.60;;;;;;;5.75;100.00;101582.75;5038566;28;20028;-73
2023/12/19 08:05:34;;;;;;;17.52;11.30;;;;;;;5.76;100.00;101583.56;5035875;28;20037;-72
2023/12/19 08:08:00;;;;;;;20.52;10.57;;;;;;;5.76;100.00;101584.41;5041920;28;20021;-73
2023/12/19 08:10:26;;;;;;;21.05;10.48;;;;;;;5.78;100.00;101575.91;5026169;28;20029;-73
2023/12/19 08:12:53;;;;;;;17.77;10.90;;;;;;;5.82;100.00;101577.97;5025590;28;20029;-73
2023/12/19 08:15:18;;;;;;;20.52;11.77;;;;;;;5.82;100.00;101571.59;5031613;28;20545;-73
2023/12/19 08:17:44;;;;;;;17.48;10.43;;;;;;;5.84;100.00;101574.97;5024485;28;20048;-73
2023/12/19 08:20:15;;;;;;;20.40;11.73;;;;;;;5.84;100.00;101580.47;5031603;28;20030;-73
2023/12/19 08:22:41;;;;;;;20.27;10.52;;;;;;;5.88;100.00;101575.31;5029185;28;20038;-73
2023/12/19 08:25:08;;;;;;;22.38;10.65;;;;;;;5.87;100.00;101573.66;5027409;28;20048;-73
2023/12/19 08:27:35;;;;;;;18.88;11.25;;;;;;;5.87;100.00;101580.00;5025847;28;20029;-73
2023/12/19 08:30:05;;;;;;;20.52;10.93;;;;;;;5.87;100.00;101577.25;5023053;28;20045;-73
2023/12/19 08:32:31;;;;;;;20.05;11.38;;;;;;;5.90;100.00;101579.53;5030868;28;20034;-73
2023/12/19 08:34:58;;;;;;;19.33;11.20;;;;;;;5.92;100.00;101587.56;5027263;28;20037;-73
2023/12/19 08:37:27;;;;;;;21.63;10.68;;;;;;;5.95;100.00;101595.41;5037932;28;20029;-73
2023/12/19 08:39:57;;;;;;;17.75;10.85;;;;;;;5.94;100.00;101591.81;5035145;28;20029;-73
2023/12/19 08:42:23;;;;;;;20.20;10.88;;;;;;;5.97;100.00;101588.56;5038134;28;20498;-73
2023/12/19 08:44:52;;;;;;;18.08;10.23;;;;;;;6.00;100.00;101581.75;5037818;28;20099;-73
2023/12/19 08:47:18;;;;;;;18.08;11.20;;;;;;;6.00;100.00;101582.59;5037834;28;20063;-73
2023/12/19 08:49:44;;;;;;;18.25;10.70;;;;;;;6.06;100.00;101582.72;5037447;28;20030;-73
2023/12/19 08:52:13;;;;;;;17.13;9.88;;;;;;;6.08;100.00;101581.41;5039890;28;20441;-73
2023/12/19 08:54:40;;;;;;;20.10;10.48;;;;;;;6.10;100.00;101590.28;5030551;28;20030;-73
2023/12/19 08:57:07;;;;;;;14.18;10.23;;;;;;;6.12;100.00;101585.34;5031186;28;20073;-73
2023/12/19 08:59:33;;;;;;;16.27;9.88;;;;;;;6.19;100.00;101590.78;5023280;28;20109;-73
2023/12/19 09:01:59;;;;;;;16.10;9.65;;;;;;;6.22;100.00;101599.41;5052813;28;20049;-73
2023/12/19 09:04:24;;;;;;;14.30;9.30;;;;;;;6.29;100.00;101592.91;5030283;28;20391;-73
2023/12/19 09:06:50;;;;;;;15.65;9.90;;;;;;;6.35;100.00;101590.06;5028093;28;20037;-73
2023/12/19 09:09:16;;;;;;;20.52;10.65;;;;;;;6.41;100.00;101593.78;5029555;28;20053;-73
2023/12/19 09:11:43;;;;;;;17.45;10.88;;;;;;;6.48;100.00;101581.53;5011145;28;20044;-73
2023/12/19 09:14:12;;;;;;;18.05;11.10;;;;;;;6.56;100.00;101585.00;5025829;28;20506;-72
2023/12/19 09:16:38;;;;;;;21.45;10.27;;;;;;;6.60;100.00;101583.44;5026579;28;20033;-73
2023/12/19 09:19:03;;;;;;;16.55;10.80;;;;;;;6.66;100.00;101585.25;5024749;28;20080;-73
2023/12/19 09:21:29;;;;;;;16.45;10.77;;;;;;;6.73;100.00;101577.66;5029083;28;20080;-73
2023/12/19 09:23:55;;;;;;;15.82;10.50;;;;;;;6.77;100.00;101580.78;5029081;28;20034;-73
2023/12/19 09:26:20;;;;;;;19.15;10.35;;;;;;;6.84;100.00;101579.56;5027515;28;20057;-73
2023/12/19 09:28:46;;;;;;;18.50;10.25;;;;;;;6.89;100.00;101581.59;5027115;28;20046;-73
2023/12/19 09:31:11;;;;;;;14.35;9.55;;;;;;;6.93;100.00;101572.56;5028100;28;20034;-73
2023/12/19 09:33:38;;;;;;;17.67;9.52;;;;;;;6.96;100.00;101562.97;5027489;28;20041;-73
2023/12/19 09:36:24;;;;;;;17.63;9.48;;;;;;;7.03;100.00;101571.13;5022266;28;20034;-73
2023/12/19 09:38:50;;;;;;;17.15;10.10;;;;;;;7.07;100.00;101573.13;5024718;28;20036;-73
2023/12/19 09:41:16;;;;;;;20.65;9.60;;;;;;;7.13;100.00;101571.31;5035591;28;20034;-73
2023/12/19 09:43:41;;;;;;;13.48;8.57;;;;;;;7.15;100.00;101571.91;5036902;28;20025;-73
2023/12/19 09:46:07;;;;;;;18.30;10.15;;;;;;;7.19;100.00;101570.34;5035748;28;20116;-73
2023/12/19 09:48:37;;;;;;;16.42;8.60;;;;;;;7.20;100.00;101572.03;5036609;28;20100;-73
2023/12/19 09:51:03;;;;;;;16.65;9.23;;;;;;;7.24;100.00;101564.91;5023556;28;20544;-73
2023/12/19 09:53:34;;;;;;;15.82;9.23;;;;;;;7.28;100.00;101568.03;5035961;28;20041;-73
2023/12/19 09:56:00;;;;;;;17.90;9.00;;;;;;;7.32;100.00;101560.91;5036349;28;20029;-73
2023/12/19 09:58:29;;;;;;;13.10;8.27;;;;;;;7.37;100.00;101556.31;5027217;28;22373;-73
2023/12/19 10:00:58;;;;;;;17.00;9.90;;;;;;;7.43;100.00;101556.44;5029846;28;20063;-73
2023/12/19 10:03:24;;;;;;;12.90;8.25;;;;;;;7.47;100.00;101561.22;5020201;28;20057;-73
2023/12/19 10:05:49;;;;;;;18.15;9.43;;;;;;;7.51;100.00;101559.63;5021658;28;20445;-72
2023/12/19 10:08:15;;;;;;;16.38;8.93;;;;;;;7.54;100.00;101564.66;5026673;28;20029;-73
2023/12/19 10:10:50;;;;;;;18.02;9.07;;;;;;;7.60;100.00;101560.91;5023702;28;20043;-73
2023/12/19 10:13:30;;;;;;;13.90;8.45;;;;;;;7.65;100.00;101557.38;5029613;28;20133;-73
2023/12/19 10:16:02;;;;;;;18.52;8.25;;;;;;;7.68;100.00;101556.88;5038930;28;20029;-73
2023/12/19 10:18:28;;;;;;;;;;;;;;;7.71;100.00;101550.03;5035820;28;20120;-73
2023/12/19 10:21:10;;;;;;;16.02;8.32;;;;;;;7.74;100.00;101549.53;5032970;28;19975;-73
2023/12/19 10:23:39;;;;;;;15.07;7.80;;;;;;;7.77;100.00;101544.34;5036283;28;20122;-73
2023/12/19 10:26:06;;;;;;;16.90;8.18;;;;;;;7.78;100.00;101548.78;5034882;28;20025;-73
2023/12/19 10:28:32;;;;;;;16.05;8.35;;;;;;;7.79;100.00;101542.16;5018502;28;20029;-73
2023/12/19 10:31:10;;;;;;;10.68;7.13;;;;;;;7.83;100.00;101521.22;5018522;28;20111;-73
2023/12/19 10:33:43;;;;;;;13.63;7.45;;;;;;;7.87;100.00;101520.72;5036004;28;20034;-73
2023/12/19 10:36:21;;;;;;;14.82;7.72;;;;;;;7.89;100.00;101516.59;5036272;28;20033;-73
2023/12/19 10:38:47;;;;;;;11.90;7.05;;;;;;;7.91;100.00;101519.09;5023316;28;20025;-73
2023/12/19 10:41:33;;;;;;;11.63;7.50;;;;;;;7.94;100.00;101527.75;5034623;28;20026;-73
2023/12/19 10:43:59;;;;;;;13.57;7.45;;;;;;;7.98;100.00;101517.03;5026600;28;20037;-73
2023/12/19 10:46:29;;;;;;;10.63;6.72;;;;;;;8.01;100.00;101520.13;5025579;28;20045;-73
2023/12/19 10:48:59;;;;;;;12.48;6.90;;;;;;;8.06;100.00;101517.44;5034042;28;20029;-73
2023/12/19 10:51:32;;;;;;;15.43;6.32;;;;;;;8.12;100.00;101515.59;5032654;28;20478;-73
2023/12/19 10:54:08;;;;;;;12.85;6.70;;;;;;;8.16;100.00;101519.53;5038983;28;20141;-73
2023/12/19 10:56:58;;;;;;;13.15;6.70;;;;;;;8.22;100.00;101512.16;5039086;28;20085;-73
2023/12/19 10:59:30;;;;;;;13.27;6.40;;;;;;;8.22;100.00;101499.16;5035697;28;20041;-73
2023/12/19 11:02:03;;;;;;;18.33;6.13;;;;;;;8.27;100.00;101496.44;5032513;28;20029;-73
2023/12/19 11:04:30;;;;;;;12.68;6.30;;;;;;;8.33;100.00;101502.03;5037561;28;20029;-73
2023/12/19 11:06:56;;;;;;;17.13;5.85;;;;;;;8.37;100.00;101497.69;5050083;28;20428;-73
2023/12/19 11:09:24;;;;;;;11.15;5.45;;;;;;;8.41;100.00;101499.72;5005708;28;20036;-73